createdAt,value
2023-04-23T00:00:33.126Z,8.74
2023-04-23T00:03:31.389Z,8.77
2023-04-23T00:06:08.901Z,8.77
2023-04-23T00:08:48.942Z,8.85
2023-04-23T00:11:22.933Z,8.90
2023-04-23T00:14:04.280Z,8.91
2023-04-23T00:16:39.044Z,8.95
2023-04-23T00:19:13.066Z,9.03
2023-04-23T00:22:17.193Z,9.09
2023-04-23T00:24:51.912Z,9.04
2023-04-23T00:27:26.324Z,9.00
2023-04-23T00:30:07.058Z,9.00
2023-04-23T00:32:41.572Z,9.01
2023-04-23T00:35:21.115Z,9.04
2023-04-23T00:38:03.554Z,9.06
2023-04-23T00:40:37.694Z,9.07
2023-04-23T00:43:12.375Z,9.09
2023-04-23T00:45:46.765Z,9.12
2023-04-23T00:48:20.829Z,9.04
2023-04-23T00:50:56.980Z,8.94
2023-04-23T00:53:31.093Z,8.87
2023-04-23T00:56:07.568Z,8.82
2023-04-23T00:58:41.979Z,8.79
2023-04-23T01:01:22.573Z,8.77
2023-04-23T01:03:57.195Z,8.74
2023-04-23T01:06:36.501Z,8.72
2023-04-23T01:09:13.959Z,8.67
2023-04-23T01:11:58.246Z,8.59
2023-04-23T01:14:37.390Z,8.47
2023-04-23T01:17:19.575Z,8.35
2023-04-23T01:20:04.946Z,8.27
2023-04-23T01:23:04.355Z,8.24
2023-04-23T01:25:45.226Z,8.19
2023-04-23T01:28:27.176Z,8.21
2023-04-23T01:31:17.955Z,8.16
2023-04-23T01:33:57.151Z,8.09
2023-04-23T01:36:43.373Z,7.99
2023-04-23T01:39:31.994Z,7.86
2023-04-23T01:42:11.837Z,7.76
2023-04-23T01:44:47.897Z,7.65
2023-04-23T01:47:26.930Z,7.54
2023-04-23T01:50:13.116Z,7.44
2023-04-23T01:52:51.781Z,7.40
2023-04-23T01:55:43.225Z,7.48
2023-04-23T01:58:19.209Z,7.59
2023-04-23T02:00:59.873Z,7.63
2023-04-23T02:03:47.316Z,7.62
2023-04-23T02:06:30.828Z,7.68
2023-04-23T02:09:08.421Z,7.81
2023-04-23T02:11:57.893Z,7.90
2023-04-23T02:14:34.877Z,7.91
2023-04-23T02:17:26.822Z,7.86
2023-04-23T02:20:03.677Z,7.82
2023-04-23T02:22:41.203Z,7.88
2023-04-23T02:25:31.051Z,7.96
2023-04-23T02:28:08.553Z,8.02
2023-04-23T02:30:55.275Z,8.09
2023-04-23T02:33:39.003Z,8.18
2023-04-23T02:36:23.338Z,8.24
2023-04-23T02:39:05.847Z,8.31
2023-04-23T02:41:56.961Z,8.36
2023-04-23T02:44:33.725Z,8.40
2023-04-23T02:47:25.422Z,8.45
2023-04-23T02:50:19.947Z,8.51
2023-04-23T02:53:01.320Z,8.56
2023-04-23T02:55:38.407Z,8.59
2023-04-23T02:58:30.228Z,8.56
2023-04-23T03:01:13.102Z,8.53
2023-04-23T03:03:50.438Z,8.54
2023-04-23T03:06:52.112Z,8.60
2023-04-23T03:09:43.915Z,8.63
2023-04-23T03:12:13.328Z,8.66
2023-04-23T03:15:02.899Z,8.69
2023-04-23T03:17:56.170Z,8.73
2023-04-23T03:21:14.301Z,8.78
2023-04-23T03:23:56.463Z,8.82
2023-04-23T03:26:35.517Z,8.81
2023-04-23T03:29:14.139Z,8.81
2023-04-23T03:32:08.443Z,8.77
2023-04-23T03:34:51.142Z,8.75
2023-04-23T03:37:41.220Z,8.72
2023-04-23T03:40:33.155Z,8.69
2023-04-23T03:43:15.965Z,8.67
2023-04-23T03:46:08.532Z,8.65
2023-04-23T03:48:53.884Z,8.68
2023-04-23T03:51:59.329Z,8.74
2023-04-23T03:54:49.620Z,8.82
2023-04-23T03:57:43.200Z,8.87
2023-04-23T04:00:39.419Z,8.89
2023-04-23T04:03:46.205Z,8.86
2023-04-23T04:06:38.025Z,8.84
2023-04-23T04:09:22.270Z,8.86
2023-04-23T04:12:15.201Z,8.85
2023-04-23T04:14:57.530Z,8.88
2023-04-23T04:17:53.201Z,8.92
2023-04-23T04:20:44.458Z,8.97
2023-04-23T04:23:47.250Z,8.99
2023-04-23T04:26:39.487Z,9.01
2023-04-23T04:29:13.508Z,9.08
2023-04-23T04:31:45.099Z,9.14
2023-04-23T04:34:23.868Z,9.19
2023-04-23T04:37:01.552Z,9.24
2023-04-23T04:39:41.821Z,9.30
2023-04-23T04:42:13.360Z,9.33
2023-04-23T04:44:47.165Z,9.35
2023-04-23T04:47:16.475Z,9.38
2023-04-23T04:49:47.720Z,9.40
2023-04-23T04:52:17.208Z,9.43
2023-04-23T04:54:51.116Z,9.49
2023-04-23T04:57:21.641Z,9.60
2023-04-23T04:59:52.793Z,9.72
2023-04-23T05:02:23.589Z,9.85
2023-04-23T05:04:55.272Z,9.94
2023-04-23T05:07:32.565Z,10.03
2023-04-23T05:10:01.347Z,10.13
2023-04-23T05:12:30.132Z,10.25
2023-04-23T05:15:09.895Z,10.36
2023-04-23T05:17:41.589Z,10.46
2023-04-23T05:20:11.238Z,10.56
2023-04-23T05:22:42.690Z,10.64
2023-04-23T05:25:15.076Z,10.72
2023-04-23T05:27:46.713Z,10.80
2023-04-23T05:30:15.704Z,10.87
2023-04-23T05:32:47.182Z,10.94
2023-04-23T05:35:16.553Z,11.01
2023-04-23T05:37:45.048Z,11.09
2023-04-23T05:40:13.819Z,11.16
2023-04-23T05:42:42.406Z,11.24
2023-04-23T05:45:11.577Z,11.32
2023-04-23T05:47:42.490Z,11.42
2023-04-23T05:50:11.943Z,11.51
2023-04-23T05:52:40.305Z,11.61
2023-04-23T05:55:10.143Z,11.69
2023-04-23T05:57:39.528Z,11.77
2023-04-23T06:00:17.322Z,11.85
2023-04-23T06:02:48.276Z,11.92
2023-04-23T06:05:17.049Z,11.99
2023-04-23T06:07:46.127Z,12.05
2023-04-23T06:10:20.252Z,12.12
2023-04-23T06:12:49.536Z,12.20
2023-04-23T06:15:21.193Z,12.30
2023-04-23T06:17:49.801Z,12.42
2023-04-23T06:20:21.125Z,12.53
2023-04-23T06:22:49.804Z,12.63
2023-04-23T06:25:20.769Z,12.75
2023-04-23T06:27:49.329Z,12.86
2023-04-23T06:30:21.507Z,12.96
2023-04-23T06:32:50.598Z,13.05
2023-04-23T06:35:19.267Z,13.14
2023-04-23T06:37:56.455Z,13.23
2023-04-23T06:40:25.139Z,13.32
2023-04-23T06:42:56.046Z,13.41
2023-04-23T06:45:57.317Z,13.55
2023-04-23T06:48:26.710Z,13.67
2023-04-23T06:50:55.402Z,13.78
2023-04-23T06:53:23.879Z,13.88
2023-04-23T06:55:52.460Z,13.97
2023-04-23T06:58:22.171Z,14.09
2023-04-23T07:00:50.720Z,14.18
2023-04-23T07:03:20.367Z,14.27
2023-04-23T07:05:49.464Z,14.38
2023-04-23T07:08:17.841Z,14.49
2023-04-23T07:10:48.537Z,14.60
2023-04-23T07:13:17.569Z,14.73
2023-04-23T07:15:46.676Z,14.86
2023-04-23T07:18:15.246Z,14.98
2023-04-23T07:20:43.624Z,15.08
2023-04-23T07:23:11.898Z,15.18
2023-04-23T07:25:40.379Z,15.28
2023-04-23T07:28:11.626Z,15.37
2023-04-23T07:30:40.155Z,15.47
2023-04-23T07:33:08.988Z,15.56
2023-04-23T07:35:37.577Z,15.63
2023-04-23T07:38:05.964Z,15.71
2023-04-23T07:40:34.422Z,15.78
2023-04-23T07:43:03.114Z,15.89
2023-04-23T07:45:31.599Z,16.00
2023-04-23T07:48:02.432Z,16.08
2023-04-23T07:50:31.117Z,16.16
2023-04-23T07:52:59.493Z,16.23
2023-04-23T07:55:27.875Z,16.30
2023-04-23T07:57:56.254Z,16.39
2023-04-23T08:00:24.639Z,16.45
2023-04-23T08:02:54.268Z,16.54
2023-04-23T08:05:22.702Z,16.68
2023-04-23T08:07:51.313Z,16.85
2023-04-23T08:10:19.665Z,16.98
2023-04-23T08:12:48.044Z,17.13
2023-04-23T08:15:16.434Z,17.29
2023-04-23T08:17:45.223Z,17.45
2023-04-23T08:20:13.582Z,17.59
2023-04-23T08:22:41.724Z,17.74
2023-04-23T08:25:10.334Z,17.90
2023-04-23T08:27:39.437Z,18.01
2023-04-23T08:30:09.038Z,18.06
2023-04-23T08:32:39.011Z,18.13
2023-04-23T08:35:08.441Z,18.22
2023-04-23T08:37:36.627Z,18.26
2023-04-23T08:40:06.034Z,18.31
2023-04-23T08:42:57.453Z,18.39
2023-04-23T08:45:27.058Z,18.50
2023-04-23T08:48:51.756Z,18.60
2023-04-23T08:51:22.078Z,18.73
2023-04-23T08:53:52.680Z,18.86
2023-04-23T08:56:22.016Z,19.05
2023-04-23T08:58:51.001Z,19.23
2023-04-23T09:01:19.448Z,19.35
2023-04-23T09:03:48.645Z,19.42
2023-04-23T09:06:16.950Z,19.55
2023-04-23T09:08:46.255Z,19.75
2023-04-23T09:11:16.059Z,19.97
2023-04-23T09:13:44.241Z,20.13
2023-04-23T09:16:12.417Z,20.26
2023-04-23T09:18:40.781Z,20.48
2023-04-23T09:21:09.162Z,20.66
2023-04-23T09:23:39.761Z,20.79
2023-04-23T09:26:08.372Z,20.96
2023-04-23T09:28:37.672Z,21.19
2023-04-23T09:31:08.710Z,21.37
2023-04-23T09:33:36.890Z,21.60
2023-04-23T09:36:12.439Z,21.80
2023-04-23T09:38:41.844Z,21.89
2023-04-23T09:41:22.902Z,21.91
2023-04-23T09:43:54.169Z,21.97
2023-04-23T09:46:37.679Z,22.01
2023-04-23T09:49:08.079Z,22.05
2023-04-23T09:51:54.093Z,22.03
2023-04-23T09:54:23.781Z,22.03
2023-04-23T09:56:54.043Z,22.07
2023-04-23T09:59:45.937Z,22.14
2023-04-23T10:02:16.144Z,22.26
2023-04-23T10:04:44.791Z,22.41
2023-04-23T10:07:20.167Z,22.57
2023-04-23T10:09:48.688Z,22.84
2023-04-23T10:12:39.427Z,23.13
2023-04-23T10:15:06.509Z,23.49
2023-04-23T10:17:38.696Z,23.72
2023-04-23T10:20:10.445Z,23.93
2023-04-23T10:22:39.573Z,24.00
2023-04-23T10:25:12.159Z,23.93
2023-04-23T10:27:53.085Z,23.73
2023-04-23T10:30:23.178Z,23.55
2023-04-23T10:32:51.800Z,23.42
2023-04-23T10:35:20.281Z,23.27
2023-04-23T10:37:48.852Z,23.09
2023-04-23T10:40:22.330Z,23.05
2023-04-23T10:42:51.226Z,22.93
2023-04-23T10:47:54.383Z,22.75
2023-04-23T10:50:31.016Z,22.68
2023-04-23T10:52:59.485Z,22.59
2023-04-23T10:55:29.602Z,22.53
2023-04-23T10:58:02.949Z,22.53
2023-04-23T11:00:52.372Z,22.59
2023-04-23T11:03:44.133Z,22.61
2023-04-23T11:06:40.336Z,22.53
2023-04-23T11:09:31.226Z,22.41
2023-04-23T11:12:01.683Z,22.26
2023-04-23T11:14:38.303Z,22.16
2023-04-23T11:17:09.262Z,22.11
2023-04-23T11:19:41.919Z,22.10
2023-04-23T11:22:20.553Z,22.13
2023-04-23T11:24:50.946Z,22.11
2023-04-23T11:27:19.978Z,22.07
2023-04-23T11:29:48.144Z,21.93
2023-04-23T11:32:18.396Z,21.77
2023-04-23T11:34:48.277Z,21.60
2023-04-23T11:37:18.396Z,21.54
2023-04-23T11:39:47.765Z,21.50
2023-04-23T11:42:17.482Z,21.44
2023-04-23T11:44:46.407Z,21.39
2023-04-23T11:47:16.828Z,21.42
2023-04-23T11:49:46.228Z,21.49
2023-04-23T11:52:14.716Z,21.63
2023-04-23T11:54:43.184Z,21.78
2023-04-23T11:57:12.090Z,21.91
2023-04-23T11:59:40.600Z,22.05
2023-04-23T12:02:09.219Z,22.19
2023-04-23T12:04:40.300Z,22.32
2023-04-23T12:07:19.580Z,22.45
2023-04-23T12:09:51.564Z,22.41
2023-04-23T12:12:20.968Z,22.30
2023-04-23T12:14:49.142Z,22.35
2023-04-23T12:17:17.411Z,22.46
2023-04-23T12:19:45.686Z,22.67
2023-04-23T12:22:13.765Z,22.80
2023-04-23T12:24:51.804Z,22.95
2023-04-23T12:27:22.489Z,23.23
2023-04-23T12:30:00.289Z,23.44
2023-04-23T12:32:28.500Z,23.69
2023-04-23T12:34:57.112Z,23.89
2023-04-23T12:37:27.157Z,24.10
2023-04-23T12:39:57.059Z,24.32
2023-04-23T12:42:26.283Z,24.52
2023-04-23T12:44:57.063Z,24.48
2023-04-23T12:47:25.516Z,24.46
2023-04-23T12:49:55.398Z,24.32
2023-04-23T12:52:23.571Z,24.04
2023-04-23T12:54:56.595Z,23.70
2023-04-23T12:57:25.456Z,23.41
2023-04-23T12:59:55.223Z,23.06
2023-04-23T13:02:24.982Z,22.59
2023-04-23T13:04:59.686Z,22.29
2023-04-23T13:07:28.239Z,22.07
2023-04-23T13:09:57.612Z,21.98
2023-04-23T13:12:26.176Z,22.00
2023-04-23T13:14:54.332Z,22.08
2023-04-23T13:17:23.385Z,22.18
2023-04-23T13:19:51.599Z,22.27
2023-04-23T13:22:19.870Z,22.10
2023-04-23T13:24:48.343Z,21.89
2023-04-23T13:27:16.512Z,21.69
2023-04-23T13:29:44.969Z,21.52
2023-04-23T13:32:13.505Z,21.30
2023-04-23T13:34:42.164Z,21.09
2023-04-23T13:37:10.433Z,20.87
2023-04-23T13:39:41.678Z,20.68
2023-04-23T13:42:10.419Z,20.48
2023-04-23T13:44:38.747Z,20.31
2023-04-23T13:47:07.325Z,20.16
2023-04-23T13:49:36.215Z,20.01
2023-04-23T13:52:07.161Z,19.83
2023-04-23T13:54:39.520Z,19.69
2023-04-23T13:57:08.119Z,19.60
2023-04-23T13:59:36.276Z,19.51
2023-04-23T14:02:04.549Z,19.44
2023-04-23T14:04:32.770Z,19.35
2023-04-23T14:07:01.115Z,19.26
2023-04-23T14:09:30.200Z,19.14
2023-04-23T14:11:58.567Z,19.04
2023-04-23T14:14:26.847Z,18.96
2023-04-23T14:16:55.218Z,18.88
2023-04-23T14:19:24.012Z,18.79
2023-04-23T14:21:52.286Z,18.63
2023-04-23T14:24:28.662Z,18.46
2023-04-23T14:26:57.124Z,18.26
2023-04-23T14:29:30.217Z,18.07
2023-04-23T14:31:58.383Z,17.85
2023-04-23T14:34:27.282Z,17.64
2023-04-23T14:36:55.649Z,17.48
2023-04-23T14:39:23.927Z,17.37
2023-04-23T14:41:52.102Z,17.32
2023-04-23T14:44:20.267Z,17.36
2023-04-23T14:46:51.227Z,17.39
2023-04-23T14:49:20.991Z,17.41
2023-04-23T14:51:51.120Z,17.43
2023-04-23T14:54:19.303Z,17.43
2023-04-23T14:56:47.449Z,17.45
2023-04-23T14:59:15.663Z,17.46
2023-04-23T15:01:44.223Z,17.47
2023-04-23T15:04:12.700Z,17.50
2023-04-23T15:06:41.091Z,17.53
2023-04-23T15:09:09.467Z,17.57
2023-04-23T15:11:39.038Z,17.59
2023-04-23T15:14:30.795Z,17.60
2023-04-23T15:16:59.090Z,17.63
2023-04-23T15:19:27.236Z,17.65
2023-04-23T15:21:55.412Z,17.66
2023-04-23T15:24:23.592Z,17.70
2023-04-23T15:26:53.606Z,17.74
2023-04-23T15:29:21.775Z,17.78
2023-04-23T15:31:52.043Z,17.84
2023-04-23T15:34:20.273Z,17.92
2023-04-23T15:36:48.350Z,18.01
2023-04-23T15:39:16.636Z,18.11
2023-04-23T15:41:46.208Z,18.28
2023-04-23T15:44:14.704Z,18.55
2023-04-23T15:46:42.772Z,18.82
2023-04-23T15:49:10.946Z,19.01
2023-04-23T15:51:39.015Z,19.18
2023-04-23T15:54:08.803Z,19.33
2023-04-23T15:56:37.362Z,19.34
2023-04-23T15:59:06.153Z,19.33
2023-04-23T16:01:34.642Z,19.32
2023-04-23T16:06:34.086Z,19.31
2023-04-23T16:09:03.800Z,19.26
2023-04-23T16:11:32.066Z,19.15
2023-04-23T16:14:00.242Z,19.03
2023-04-23T16:16:28.954Z,18.89
2023-04-23T16:18:57.819Z,18.75
2023-04-23T16:21:28.140Z,18.66
2023-04-23T16:23:56.306Z,18.58
2023-04-23T16:26:24.806Z,18.46
2023-04-23T16:29:05.395Z,18.36
2023-04-23T16:31:40.637Z,18.22
2023-04-23T16:34:08.870Z,18.11
2023-04-23T16:36:37.346Z,18.00
2023-04-23T16:39:05.834Z,17.90
2023-04-23T16:41:34.122Z,17.82
2023-04-23T16:44:02.379Z,17.75
2023-04-23T16:46:31.802Z,17.68
2023-04-23T16:49:00.490Z,17.61
2023-04-23T16:51:29.908Z,17.54
2023-04-23T16:53:58.248Z,17.46
2023-04-23T16:56:26.818Z,17.38
2023-04-23T16:58:54.991Z,17.32
2023-04-23T17:01:23.084Z,17.27
2023-04-23T17:03:51.481Z,17.23
2023-04-23T17:06:28.322Z,17.18
2023-04-23T17:08:58.196Z,17.11
2023-04-23T17:11:27.626Z,17.04
2023-04-23T17:13:56.716Z,16.97
2023-04-23T17:16:28.047Z,16.90
2023-04-23T17:18:57.469Z,16.85
2023-04-23T17:21:26.149Z,16.79
2023-04-23T17:23:54.444Z,16.72
2023-04-23T17:26:22.598Z,16.64
2023-04-23T17:28:51.181Z,16.58
2023-04-23T17:31:19.482Z,16.51
2023-04-23T17:33:49.630Z,16.45
2023-04-23T17:36:17.950Z,16.39
2023-04-23T17:38:46.461Z,16.34
2023-04-23T17:41:14.916Z,16.29
2023-04-23T17:43:43.199Z,16.25
2023-04-23T17:46:11.441Z,16.21
2023-04-23T17:48:40.868Z,16.16
2023-04-23T17:51:09.041Z,16.12
2023-04-23T17:53:37.211Z,16.07
2023-04-23T17:56:05.696Z,16.04
2023-04-23T17:58:35.883Z,16.00
2023-04-23T18:01:04.306Z,15.95
2023-04-23T18:03:32.658Z,15.92
2023-04-23T18:06:01.399Z,15.89
2023-04-23T18:08:30.578Z,15.85
2023-04-23T18:10:59.550Z,15.82
2023-04-23T18:13:27.703Z,15.80
2023-04-23T18:15:56.492Z,15.80
2023-04-23T18:18:24.760Z,15.77
2023-04-23T18:20:53.041Z,15.76
2023-04-23T18:23:22.276Z,15.73
2023-04-23T18:25:50.825Z,15.71
2023-04-23T18:28:19.099Z,15.68
2023-04-23T18:30:47.804Z,15.65
2023-04-23T18:33:16.739Z,15.62
2023-04-23T18:35:48.322Z,15.59
2023-04-23T18:38:32.438Z,15.57
2023-04-23T18:41:02.993Z,15.53
2023-04-23T18:43:34.663Z,15.50
2023-04-23T18:46:02.968Z,15.47
2023-04-23T18:48:34.064Z,15.44
2023-04-23T18:51:13.633Z,15.41
2023-04-23T18:53:41.776Z,15.39
2023-04-23T18:56:10.357Z,15.37
2023-04-23T18:58:38.528Z,15.35
2023-04-23T19:01:06.871Z,15.31
2023-04-23T19:03:35.273Z,15.29
2023-04-23T19:06:07.851Z,15.26
2023-04-23T19:08:36.223Z,15.23
2023-04-23T19:11:05.037Z,15.19
2023-04-23T19:13:33.294Z,15.16
2023-04-23T19:16:01.595Z,15.13
2023-04-23T19:18:30.057Z,15.10
2023-04-23T19:20:58.735Z,15.06
2023-04-23T19:23:26.902Z,15.03
2023-04-23T19:25:55.088Z,15.00
2023-04-23T19:28:24.670Z,14.98
2023-04-23T19:30:53.085Z,14.97
2023-04-23T19:33:21.336Z,14.96
2023-04-23T19:35:49.617Z,14.95
2023-04-23T19:38:18.203Z,14.93
2023-04-23T19:40:46.570Z,14.92
2023-04-23T19:43:15.056Z,14.90
2023-04-23T19:45:43.222Z,14.88
2023-04-23T19:48:11.497Z,14.84
2023-04-23T19:50:39.907Z,14.80
2023-04-23T19:53:08.150Z,14.76
2023-04-23T19:55:36.542Z,14.69
2023-04-23T19:58:07.263Z,14.64
2023-04-23T20:00:41.671Z,14.62
2023-04-23T20:03:10.622Z,14.60
2023-04-23T20:05:39.352Z,14.55
2023-04-23T20:08:14.905Z,14.49
2023-04-23T20:10:43.478Z,14.44
2023-04-23T20:13:11.969Z,14.39
2023-04-23T20:15:40.553Z,14.34
2023-04-23T20:18:08.879Z,14.33
2023-04-23T20:20:37.808Z,14.34
2023-04-23T20:23:05.982Z,14.35
2023-04-23T20:25:36.547Z,14.33
2023-04-23T20:28:05.393Z,14.32
2023-04-23T20:30:33.460Z,14.31
2023-04-23T20:33:01.679Z,14.31
2023-04-23T20:35:31.758Z,14.31
2023-04-23T20:38:01.056Z,14.29
2023-04-23T20:40:34.789Z,14.25
2023-04-23T20:43:04.774Z,14.21
2023-04-23T20:45:34.834Z,14.17
2023-04-23T20:48:03.885Z,14.14
2023-04-23T20:50:32.361Z,14.11
2023-04-23T20:53:00.528Z,14.11
2023-04-23T20:55:28.710Z,14.10
2023-04-23T20:57:56.987Z,14.09
2023-04-23T21:00:25.256Z,14.08
2023-04-23T21:02:54.009Z,14.05
2023-04-23T21:05:22.332Z,14.03
2023-04-23T21:07:51.000Z,14.01
2023-04-23T21:10:19.481Z,14.01
2023-04-23T21:12:47.669Z,14.01
2023-04-23T21:15:16.953Z,14.00
2023-04-23T21:17:45.053Z,13.98
2023-04-23T21:20:13.805Z,13.98
2023-04-23T21:22:41.872Z,13.98
2023-04-23T21:25:10.148Z,13.99
2023-04-23T21:27:38.425Z,13.98
2023-04-23T21:30:14.450Z,13.98
2023-04-23T21:32:42.809Z,13.98
2023-04-23T21:35:11.029Z,13.99
2023-04-23T21:37:39.212Z,14.00
2023-04-23T21:40:10.891Z,13.99
2023-04-23T21:42:39.337Z,13.98
2023-04-23T21:45:08.815Z,13.98
2023-04-23T21:47:37.152Z,13.96
2023-04-23T21:50:06.107Z,13.93
2023-04-23T21:52:34.376Z,13.90
2023-04-23T21:55:02.452Z,13.86
2023-04-23T21:57:30.823Z,13.83
2023-04-23T21:59:59.113Z,13.83
2023-04-23T22:02:27.485Z,13.81
2023-04-23T22:04:56.067Z,13.79
2023-04-23T22:07:24.439Z,13.80
2023-04-23T22:09:52.709Z,13.80
2023-04-23T22:12:20.886Z,13.81
2023-04-23T22:14:48.954Z,13.79
2023-04-23T22:17:19.038Z,13.78
2023-04-23T22:19:47.352Z,13.77
2023-04-23T22:22:15.724Z,13.76
2023-04-23T22:24:43.791Z,13.75
2023-04-23T22:27:12.065Z,13.74
2023-04-23T22:29:40.428Z,13.70
2023-04-23T22:32:08.945Z,13.67
2023-04-23T22:34:37.198Z,13.66
2023-04-23T22:37:05.672Z,13.67
2023-04-23T22:39:33.744Z,13.67
2023-04-23T22:42:03.148Z,13.65
2023-04-23T22:44:31.434Z,13.66
2023-04-23T22:46:59.595Z,13.67
2023-04-23T22:49:27.668Z,13.64
2023-04-23T22:51:55.836Z,13.59
2023-04-23T22:54:24.311Z,13.51
2023-04-23T22:56:53.307Z,13.44
2023-04-23T22:59:21.784Z,13.36
2023-04-23T23:01:49.877Z,13.32
2023-04-23T23:04:18.081Z,13.29
2023-04-23T23:06:46.724Z,13.23
2023-04-23T23:09:14.884Z,13.18
2023-04-23T23:11:43.067Z,13.05
2023-04-23T23:14:11.741Z,12.98
2023-04-23T23:16:40.735Z,12.93
2023-04-23T23:19:08.905Z,12.88
2023-04-23T23:21:37.083Z,12.84
2023-04-23T23:24:05.352Z,12.83
2023-04-23T23:26:33.525Z,12.78
2023-04-23T23:29:01.718Z,12.74
2023-04-23T23:31:29.881Z,12.71
2023-04-23T23:33:58.553Z,12.66
2023-04-23T23:36:28.160Z,12.61
2023-04-23T23:38:56.233Z,12.58
2023-04-23T23:41:24.509Z,12.54
2023-04-23T23:43:53.375Z,12.46
2023-04-23T23:46:21.646Z,12.38
2023-04-23T23:48:49.840Z,12.31
2023-04-23T23:51:18.319Z,12.27
2023-04-23T23:53:46.499Z,12.24
2023-04-23T23:56:14.675Z,12.22
2023-04-23T23:58:42.733Z,12.22
